sensor_id;sensor_type;location;lat;lon;timestamp;P1;durP1;ratioP1;P2;durP2;ratioP2
59846;SDS011;45728;48.788;2.302;2022-08-03T00:00:10;6.13;;;3.28;;
59846;SDS011;45728;48.788;2.302;2022-08-03T00:02:39;5.30;;;3.53;;
59846;SDS011;45728;48.788;2.302;2022-08-03T00:05:06;6.55;;;3.03;;
59846;SDS011;45728;48.788;2.302;2022-08-03T00:07:33;6.32;;;3.28;;
59846;SDS011;45728;48.788;2.302;2022-08-03T00:09:59;7.75;;;3.60;;
59846;SDS011;45728;48.788;2.302;2022-08-03T00:12:25;6.00;;;3.17;;
59846;SDS011;45728;48.788;2.302;2022-08-03T00:14:51;9.35;;;4.07;;
59846;SDS011;45728;48.788;2.302;2022-08-03T00:17:17;5.57;;;3.30;;
59846;SDS011;45728;48.788;2.302;2022-08-03T00:19:43;4.40;;;3.10;;
59846;SDS011;45728;48.788;2.302;2022-08-03T00:22:09;4.57;;;3.10;;
59846;SDS011;45728;48.788;2.302;2022-08-03T00:24:35;5.00;;;3.28;;
59846;SDS011;45728;48.788;2.302;2022-08-03T00:27:02;5.80;;;3.22;;
59846;SDS011;45728;48.788;2.302;2022-08-03T00:29:28;5.85;;;3.00;;
59846;SDS011;45728;48.788;2.302;2022-08-03T00:31:54;6.85;;;3.08;;
59846;SDS011;45728;48.788;2.302;2022-08-03T00:34:20;7.63;;;3.22;;
59846;SDS011;45728;48.788;2.302;2022-08-03T00:36:46;4.57;;;3.00;;
59846;SDS011;45728;48.788;2.302;2022-08-03T00:39:12;5.97;;;3.17;;
59846;SDS011;45728;48.788;2.302;2022-08-03T00:41:38;4.50;;;2.85;;
59846;SDS011;45728;48.788;2.302;2022-08-03T00:44:04;9.43;;;3.20;;
59846;SDS011;45728;48.788;2.302;2022-08-03T00:46:30;4.28;;;2.78;;
59846;SDS011;45728;48.788;2.302;2022-08-03T00:48:56;6.15;;;3.17;;
59846;SDS011;45728;48.788;2.302;2022-08-03T00:51:22;7.57;;;2.80;;
59846;SDS011;45728;48.788;2.302;2022-08-03T00:53:48;3.63;;;2.22;;
59846;SDS011;45728;48.788;2.302;2022-08-03T00:56:16;5.10;;;2.40;;
59846;SDS011;45728;48.788;2.302;2022-08-03T00:58:42;4.85;;;2.25;;
59846;SDS011;45728;48.788;2.302;2022-08-03T01:01:09;4.07;;;2.13;;
59846;SDS011;45728;48.788;2.302;2022-08-03T01:03:36;7.05;;;2.60;;
59846;SDS011;45728;48.788;2.302;2022-08-03T01:06:06;4.18;;;1.92;;
59846;SDS011;45728;48.788;2.302;2022-08-03T01:11:46;6.53;;;2.33;;
59846;SDS011;45728;48.788;2.302;2022-08-03T01:14:33;6.05;;;2.60;;
59846;SDS011;45728;48.788;2.302;2022-08-03T01:17:11;5.35;;;2.22;;
59846;SDS011;45728;48.788;2.302;2022-08-03T01:19:44;5.43;;;2.42;;
59846;SDS011;45728;48.788;2.302;2022-08-03T01:30:34;6.10;;;2.15;;
59846;SDS011;45728;48.788;2.302;2022-08-03T01:33:03;4.70;;;1.90;;
59846;SDS011;45728;48.788;2.302;2022-08-03T01:35:47;6.25;;;2.20;;
59846;SDS011;45728;48.788;2.302;2022-08-03T01:38:31;4.63;;;1.80;;
59846;SDS011;45728;48.788;2.302;2022-08-03T01:41:01;4.07;;;2.13;;
59846;SDS011;45728;48.788;2.302;2022-08-03T01:43:31;3.45;;;1.73;;
59846;SDS011;45728;48.788;2.302;2022-08-03T01:45:59;4.32;;;1.90;;
59846;SDS011;45728;48.788;2.302;2022-08-03T01:48:27;4.85;;;1.90;;
59846;SDS011;45728;48.788;2.302;2022-08-03T01:50:54;3.97;;;1.80;;
59846;SDS011;45728;48.788;2.302;2022-08-03T01:53:22;4.28;;;1.90;;
59846;SDS011;45728;48.788;2.302;2022-08-03T01:55:51;3.55;;;1.60;;
59846;SDS011;45728;48.788;2.302;2022-08-03T01:58:19;5.05;;;1.90;;
59846;SDS011;45728;48.788;2.302;2022-08-03T02:03:15;3.08;;;1.60;;
59846;SDS011;45728;48.788;2.302;2022-08-03T02:05:44;3.63;;;2.00;;
59846;SDS011;45728;48.788;2.302;2022-08-03T02:08:12;4.20;;;1.60;;
59846;SDS011;45728;48.788;2.302;2022-08-03T02:10:42;5.38;;;1.77;;
59846;SDS011;45728;48.788;2.302;2022-08-03T02:13:10;5.10;;;1.90;;
59846;SDS011;45728;48.788;2.302;2022-08-03T02:15:39;3.95;;;1.70;;
59846;SDS011;45728;48.788;2.302;2022-08-03T02:18:07;3.15;;;1.70;;
59846;SDS011;45728;48.788;2.302;2022-08-03T02:20:35;3.53;;;1.85;;
59846;SDS011;45728;48.788;2.302;2022-08-03T02:23:03;4.28;;;1.98;;
59846;SDS011;45728;48.788;2.302;2022-08-03T02:25:31;2.47;;;1.63;;
59846;SDS011;45728;48.788;2.302;2022-08-03T02:28:07;5.13;;;1.67;;
59846;SDS011;45728;48.788;2.302;2022-08-03T02:30:36;2.08;;;1.67;;
59846;SDS011;45728;48.788;2.302;2022-08-03T02:33:09;2.25;;;1.60;;
59846;SDS011;45728;48.788;2.302;2022-08-03T02:35:42;3.33;;;1.73;;
59846;SDS011;45728;48.788;2.302;2022-08-03T02:38:10;4.82;;;1.92;;
59846;SDS011;45728;48.788;2.302;2022-08-03T02:40:39;3.17;;;1.80;;
59846;SDS011;45728;48.788;2.302;2022-08-03T02:43:08;4.35;;;1.65;;
59846;SDS011;45728;48.788;2.302;2022-08-03T02:45:41;3.28;;;1.50;;
59846;SDS011;45728;48.788;2.302;2022-08-03T02:48:11;4.30;;;1.92;;
59846;SDS011;45728;48.788;2.302;2022-08-03T02:50:43;4.53;;;1.65;;
59846;SDS011;45728;48.788;2.302;2022-08-03T02:53:11;4.75;;;1.48;;
59846;SDS011;45728;48.788;2.302;2022-08-03T02:55:38;4.38;;;2.00;;
59846;SDS011;45728;48.788;2.302;2022-08-03T02:58:06;3.40;;;1.40;;
59846;SDS011;45728;48.788;2.302;2022-08-03T03:00:32;5.47;;;1.75;;
59846;SDS011;45728;48.788;2.302;2022-08-03T03:03:00;2.38;;;1.60;;
59846;SDS011;45728;48.788;2.302;2022-08-03T03:05:28;4.15;;;1.70;;
59846;SDS011;45728;48.788;2.302;2022-08-03T03:07:55;2.30;;;1.75;;
59846;SDS011;45728;48.788;2.302;2022-08-03T03:10:22;4.40;;;1.88;;
59846;SDS011;45728;48.788;2.302;2022-08-03T03:12:51;3.10;;;1.65;;
59846;SDS011;45728;48.788;2.302;2022-08-03T03:15:21;5.32;;;1.77;;
59846;SDS011;45728;48.788;2.302;2022-08-03T03:17:48;5.63;;;1.70;;
59846;SDS011;45728;48.788;2.302;2022-08-03T03:20:16;2.85;;;1.65;;
59846;SDS011;45728;48.788;2.302;2022-08-03T03:22:42;2.92;;;1.88;;
59846;SDS011;45728;48.788;2.302;2022-08-03T03:25:11;2.65;;;1.70;;
59846;SDS011;45728;48.788;2.302;2022-08-03T03:27:38;4.05;;;1.90;;
59846;SDS011;45728;48.788;2.302;2022-08-03T03:30:05;3.13;;;1.70;;
59846;SDS011;45728;48.788;2.302;2022-08-03T03:32:31;3.78;;;1.90;;
59846;SDS011;45728;48.788;2.302;2022-08-03T03:34:58;4.00;;;1.90;;
59846;SDS011;45728;48.788;2.302;2022-08-03T03:37:27;2.72;;;1.83;;
59846;SDS011;45728;48.788;2.302;2022-08-03T03:39:53;2.03;;;1.40;;
59846;SDS011;45728;48.788;2.302;2022-08-03T03:42:20;3.28;;;1.58;;
59846;SDS011;45728;48.788;2.302;2022-08-03T03:44:46;2.38;;;1.60;;
59846;SDS011;45728;48.788;2.302;2022-08-03T03:47:12;3.22;;;1.50;;
59846;SDS011;45728;48.788;2.302;2022-08-03T03:49:39;4.03;;;1.70;;
59846;SDS011;45728;48.788;2.302;2022-08-03T03:52:07;4.38;;;2.05;;
59846;SDS011;45728;48.788;2.302;2022-08-03T03:54:43;2.42;;;1.77;;
59846;SDS011;45728;48.788;2.302;2022-08-03T03:57:10;2.50;;;1.65;;
59846;SDS011;45728;48.788;2.302;2022-08-03T03:59:37;5.53;;;2.05;;
59846;SDS011;45728;48.788;2.302;2022-08-03T04:02:04;4.38;;;1.70;;
59846;SDS011;45728;48.788;2.302;2022-08-03T04:04:31;3.53;;;1.77;;
59846;SDS011;45728;48.788;2.302;2022-08-03T04:07:17;3.47;;;1.65;;
59846;SDS011;45728;48.788;2.302;2022-08-03T04:10:03;4.38;;;2.10;;
59846;SDS011;45728;48.788;2.302;2022-08-03T04:12:53;7.25;;;2.20;;
59846;SDS011;45728;48.788;2.302;2022-08-03T04:15:23;3.47;;;1.88;;
59846;SDS011;45728;48.788;2.302;2022-08-03T04:17:52;5.78;;;1.85;;
59846;SDS011;45728;48.788;2.302;2022-08-03T04:20:25;6.00;;;1.92;;
59846;SDS011;45728;48.788;2.302;2022-08-03T04:22:54;6.45;;;2.00;;
59846;SDS011;45728;48.788;2.302;2022-08-03T04:25:25;4.20;;;2.10;;
59846;SDS011;45728;48.788;2.302;2022-08-03T04:27:54;3.75;;;1.90;;
59846;SDS011;45728;48.788;2.302;2022-08-03T04:30:25;6.60;;;2.17;;
59846;SDS011;45728;48.788;2.302;2022-08-03T04:32:54;4.30;;;2.15;;
59846;SDS011;45728;48.788;2.302;2022-08-03T04:35:22;6.72;;;1.80;;
59846;SDS011;45728;48.788;2.302;2022-08-03T04:37:50;4.10;;;1.88;;
59846;SDS011;45728;48.788;2.302;2022-08-03T04:40:19;5.13;;;1.83;;
59846;SDS011;45728;48.788;2.302;2022-08-03T04:42:49;4.82;;;2.03;;
59846;SDS011;45728;48.788;2.302;2022-08-03T04:45:18;7.38;;;2.22;;
59846;SDS011;45728;48.788;2.302;2022-08-03T04:47:45;5.40;;;2.00;;
59846;SDS011;45728;48.788;2.302;2022-08-03T04:50:11;4.82;;;1.63;;
59846;SDS011;45728;48.788;2.302;2022-08-03T04:52:38;5.43;;;1.98;;
59846;SDS011;45728;48.788;2.302;2022-08-03T04:55:04;4.28;;;1.75;;
59846;SDS011;45728;48.788;2.302;2022-08-03T04:57:31;4.22;;;1.95;;
59846;SDS011;45728;48.788;2.302;2022-08-03T04:59:57;4.80;;;1.83;;
59846;SDS011;45728;48.788;2.302;2022-08-03T05:02:23;6.13;;;2.08;;
59846;SDS011;45728;48.788;2.302;2022-08-03T05:04:49;6.00;;;1.90;;
59846;SDS011;45728;48.788;2.302;2022-08-03T05:07:15;4.78;;;2.28;;
59846;SDS011;45728;48.788;2.302;2022-08-03T05:09:43;6.70;;;2.55;;
59846;SDS011;45728;48.788;2.302;2022-08-03T05:12:09;5.70;;;2.22;;
59846;SDS011;45728;48.788;2.302;2022-08-03T05:14:36;5.60;;;2.45;;
59846;SDS011;45728;48.788;2.302;2022-08-03T05:17:06;5.15;;;2.15;;
59846;SDS011;45728;48.788;2.302;2022-08-03T05:19:33;7.75;;;2.83;;
59846;SDS011;45728;48.788;2.302;2022-08-03T05:22:00;13.50;;;3.40;;
59846;SDS011;45728;48.788;2.302;2022-08-03T05:24:26;13.20;;;3.13;;
59846;SDS011;45728;48.788;2.302;2022-08-03T05:26:52;11.20;;;3.03;;
59846;SDS011;45728;48.788;2.302;2022-08-03T05:29:18;14.15;;;3.20;;
59846;SDS011;45728;48.788;2.302;2022-08-03T05:31:44;10.43;;;3.20;;
59846;SDS011;45728;48.788;2.302;2022-08-03T05:34:10;9.45;;;2.90;;
59846;SDS011;45728;48.788;2.302;2022-08-03T05:36:36;6.90;;;2.63;;
59846;SDS011;45728;48.788;2.302;2022-08-03T05:39:02;6.13;;;2.97;;
59846;SDS011;45728;48.788;2.302;2022-08-03T05:41:28;14.13;;;3.20;;
59846;SDS011;45728;48.788;2.302;2022-08-03T05:43:54;20.92;;;3.90;;
59846;SDS011;45728;48.788;2.302;2022-08-03T05:46:21;18.42;;;3.58;;
59846;SDS011;45728;48.788;2.302;2022-08-03T05:48:47;9.05;;;3.35;;
59846;SDS011;45728;48.788;2.302;2022-08-03T05:51:14;14.02;;;3.78;;
59846;SDS011;45728;48.788;2.302;2022-08-03T05:53:40;26.75;;;5.03;;
59846;SDS011;45728;48.788;2.302;2022-08-03T05:56:26;36.35;;;6.20;;
59846;SDS011;45728;48.788;2.302;2022-08-03T05:58:52;31.83;;;5.30;;
59846;SDS011;45728;48.788;2.302;2022-08-03T06:01:19;40.85;;;6.57;;
59846;SDS011;45728;48.788;2.302;2022-08-03T06:03:46;8.52;;;3.22;;
59846;SDS011;45728;48.788;2.302;2022-08-03T06:06:13;14.57;;;3.13;;
59846;SDS011;45728;48.788;2.302;2022-08-03T06:08:41;6.80;;;2.60;;
59846;SDS011;45728;48.788;2.302;2022-08-03T06:11:07;7.20;;;2.78;;
59846;SDS011;45728;48.788;2.302;2022-08-03T06:13:34;5.82;;;2.72;;
59846;SDS011;45728;48.788;2.302;2022-08-03T06:16:00;5.70;;;2.50;;
59846;SDS011;45728;48.788;2.302;2022-08-03T06:18:26;5.40;;;2.58;;
59846;SDS011;45728;48.788;2.302;2022-08-03T06:20:52;12.45;;;2.90;;
59846;SDS011;45728;48.788;2.302;2022-08-03T06:23:19;7.15;;;2.78;;
59846;SDS011;45728;48.788;2.302;2022-08-03T06:25:45;5.20;;;2.75;;
59846;SDS011;45728;48.788;2.302;2022-08-03T06:28:12;6.38;;;2.35;;
59846;SDS011;45728;48.788;2.302;2022-08-03T06:30:38;5.82;;;2.50;;
59846;SDS011;45728;48.788;2.302;2022-08-03T06:33:05;8.60;;;2.20;;
59846;SDS011;45728;48.788;2.302;2022-08-03T06:35:31;8.07;;;2.40;;
59846;SDS011;45728;48.788;2.302;2022-08-03T06:37:58;9.50;;;2.30;;
59846;SDS011;45728;48.788;2.302;2022-08-03T06:40:24;6.10;;;2.20;;
59846;SDS011;45728;48.788;2.302;2022-08-03T06:42:57;5.50;;;2.50;;
59846;SDS011;45728;48.788;2.302;2022-08-03T06:45:24;10.43;;;2.60;;
59846;SDS011;45728;48.788;2.302;2022-08-03T06:48:03;30.00;;;7.28;;
59846;SDS011;45728;48.788;2.302;2022-08-03T06:50:32;26.52;;;4.00;;
59846;SDS011;45728;48.788;2.302;2022-08-03T06:52:59;6.28;;;2.50;;
59846;SDS011;45728;48.788;2.302;2022-08-03T06:55:25;6.95;;;2.25;;
59846;SDS011;45728;48.788;2.302;2022-08-03T06:57:52;37.75;;;8.20;;
59846;SDS011;45728;48.788;2.302;2022-08-03T07:00:18;89.22;;;17.02;;
59846;SDS011;45728;48.788;2.302;2022-08-03T07:02:44;90.00;;;12.40;;
59846;SDS011;45728;48.788;2.302;2022-08-03T07:05:11;96.57;;;16.13;;
59846;SDS011;45728;48.788;2.302;2022-08-03T07:07:37;9.93;;;2.95;;
59846;SDS011;45728;48.788;2.302;2022-08-03T07:10:04;6.00;;;2.70;;
59846;SDS011;45728;48.788;2.302;2022-08-03T07:12:31;16.13;;;5.22;;
59846;SDS011;45728;48.788;2.302;2022-08-03T07:14:58;18.67;;;5.43;;
59846;SDS011;45728;48.788;2.302;2022-08-03T07:17:25;83.93;;;12.52;;
59846;SDS011;45728;48.788;2.302;2022-08-03T07:19:51;18.10;;;3.53;;
59846;SDS011;45728;48.788;2.302;2022-08-03T07:22:18;19.73;;;4.43;;
59846;SDS011;45728;48.788;2.302;2022-08-03T07:24:44;7.25;;;2.63;;
59846;SDS011;45728;48.788;2.302;2022-08-03T07:27:11;20.83;;;3.70;;
59846;SDS011;45728;48.788;2.302;2022-08-03T07:29:37;7.72;;;2.65;;
59846;SDS011;45728;48.788;2.302;2022-08-03T07:32:03;26.80;;;3.08;;
59846;SDS011;45728;48.788;2.302;2022-08-03T07:34:30;26.20;;;4.28;;
59846;SDS011;45728;48.788;2.302;2022-08-03T07:36:56;7.20;;;2.50;;
59846;SDS011;45728;48.788;2.302;2022-08-03T07:39:22;6.38;;;2.22;;
59846;SDS011;45728;48.788;2.302;2022-08-03T07:41:48;7.88;;;2.22;;
59846;SDS011;45728;48.788;2.302;2022-08-03T07:44:16;6.20;;;2.42;;
59846;SDS011;45728;48.788;2.302;2022-08-03T07:46:43;4.80;;;2.42;;
59846;SDS011;45728;48.788;2.302;2022-08-03T07:49:10;6.97;;;2.78;;
59846;SDS011;45728;48.788;2.302;2022-08-03T07:51:36;8.80;;;2.33;;
59846;SDS011;45728;48.788;2.302;2022-08-03T07:54:02;7.72;;;3.00;;
59846;SDS011;45728;48.788;2.302;2022-08-03T07:56:28;3.65;;;2.20;;
59846;SDS011;45728;48.788;2.302;2022-08-03T07:58:55;5.40;;;2.22;;
59846;SDS011;45728;48.788;2.302;2022-08-03T08:01:21;4.82;;;2.20;;
59846;SDS011;45728;48.788;2.302;2022-08-03T08:03:48;6.78;;;2.85;;
59846;SDS011;45728;48.788;2.302;2022-08-03T08:06:15;6.85;;;2.67;;
59846;SDS011;45728;48.788;2.302;2022-08-03T08:08:42;6.28;;;2.40;;
59846;SDS011;45728;48.788;2.302;2022-08-03T08:11:08;10.95;;;2.42;;
59846;SDS011;45728;48.788;2.302;2022-08-03T08:13:35;8.48;;;2.40;;
59846;SDS011;45728;48.788;2.302;2022-08-03T08:16:03;11.20;;;2.38;;
59846;SDS011;45728;48.788;2.302;2022-08-03T08:18:29;6.68;;;2.13;;
59846;SDS011;45728;48.788;2.302;2022-08-03T08:20:56;14.60;;;2.85;;
59846;SDS011;45728;48.788;2.302;2022-08-03T08:23:23;9.50;;;2.60;;
59846;SDS011;45728;48.788;2.302;2022-08-03T08:25:52;4.95;;;2.05;;
59846;SDS011;45728;48.788;2.302;2022-08-03T08:28:18;5.13;;;2.45;;
59846;SDS011;45728;48.788;2.302;2022-08-03T08:30:45;19.77;;;2.90;;
59846;SDS011;45728;48.788;2.302;2022-08-03T08:33:11;13.82;;;2.88;;
59846;SDS011;45728;48.788;2.302;2022-08-03T08:35:39;8.15;;;2.42;;
59846;SDS011;45728;48.788;2.302;2022-08-03T08:40:33;15.30;;;2.85;;
59846;SDS011;45728;48.788;2.302;2022-08-03T08:42:59;5.10;;;2.03;;
59846;SDS011;45728;48.788;2.302;2022-08-03T08:45:26;10.48;;;2.50;;
59846;SDS011;45728;48.788;2.302;2022-08-03T08:47:52;5.10;;;2.22;;
59846;SDS011;45728;48.788;2.302;2022-08-03T08:50:21;11.02;;;2.30;;
59846;SDS011;45728;48.788;2.302;2022-08-03T08:52:48;7.45;;;2.22;;
59846;SDS011;45728;48.788;2.302;2022-08-03T08:55:19;4.97;;;2.17;;
59846;SDS011;45728;48.788;2.302;2022-08-03T08:57:47;16.38;;;2.47;;
59846;SDS011;45728;48.788;2.302;2022-08-03T09:00:15;5.05;;;2.10;;
59846;SDS011;45728;48.788;2.302;2022-08-03T09:02:42;6.88;;;1.95;;
59846;SDS011;45728;48.788;2.302;2022-08-03T09:05:13;8.77;;;2.28;;
59846;SDS011;45728;48.788;2.302;2022-08-03T09:07:43;9.05;;;1.90;;
59846;SDS011;45728;48.788;2.302;2022-08-03T09:10:12;6.35;;;2.00;;
59846;SDS011;45728;48.788;2.302;2022-08-03T09:12:44;4.07;;;2.10;;
59846;SDS011;45728;48.788;2.302;2022-08-03T09:17:46;11.55;;;2.80;;
59846;SDS011;45728;48.788;2.302;2022-08-03T09:20:12;7.18;;;1.98;;
59846;SDS011;45728;48.788;2.302;2022-08-03T09:22:50;7.45;;;2.20;;
59846;SDS011;45728;48.788;2.302;2022-08-03T09:25:17;3.70;;;1.70;;
59846;SDS011;45728;48.788;2.302;2022-08-03T09:27:43;6.03;;;2.00;;
59846;SDS011;45728;48.788;2.302;2022-08-03T09:30:14;5.38;;;2.17;;
59846;SDS011;45728;48.788;2.302;2022-08-03T09:32:41;9.15;;;2.38;;
59846;SDS011;45728;48.788;2.302;2022-08-03T09:35:09;5.40;;;2.05;;
59846;SDS011;45728;48.788;2.302;2022-08-03T09:37:36;6.20;;;1.70;;
59846;SDS011;45728;48.788;2.302;2022-08-03T09:40:02;9.10;;;2.38;;
59846;SDS011;45728;48.788;2.302;2022-08-03T09:42:29;5.75;;;1.92;;
59846;SDS011;45728;48.788;2.302;2022-08-03T09:44:55;5.50;;;1.90;;
59846;SDS011;45728;48.788;2.302;2022-08-03T09:50:07;8.55;;;2.05;;
59846;SDS011;45728;48.788;2.302;2022-08-03T09:52:35;10.40;;;2.13;;
59846;SDS011;45728;48.788;2.302;2022-08-03T09:55:07;5.18;;;1.95;;
59846;SDS011;45728;48.788;2.302;2022-08-03T09:57:34;4.30;;;1.95;;
59846;SDS011;45728;48.788;2.302;2022-08-03T10:00:05;5.05;;;2.13;;
59846;SDS011;45728;48.788;2.302;2022-08-03T10:02:35;5.35;;;1.95;;
59846;SDS011;45728;48.788;2.302;2022-08-03T10:05:02;7.35;;;1.60;;
59846;SDS011;45728;48.788;2.302;2022-08-03T10:07:40;6.37;;;1.90;;
59846;SDS011;45728;48.788;2.302;2022-08-03T10:10:10;8.98;;;2.22;;
59846;SDS011;45728;48.788;2.302;2022-08-03T10:12:36;4.43;;;1.92;;
59846;SDS011;45728;48.788;2.302;2022-08-03T10:15:04;5.18;;;1.80;;
59846;SDS011;45728;48.788;2.302;2022-08-03T10:17:30;5.30;;;1.65;;
59846;SDS011;45728;48.788;2.302;2022-08-03T10:19:56;4.32;;;1.48;;
59846;SDS011;45728;48.788;2.302;2022-08-03T10:22:26;3.42;;;1.60;;
59846;SDS011;45728;48.788;2.302;2022-08-03T10:24:55;10.52;;;1.85;;
59846;SDS011;45728;48.788;2.302;2022-08-03T10:27:25;4.18;;;1.85;;
59846;SDS011;45728;48.788;2.302;2022-08-03T10:29:57;7.85;;;2.00;;
59846;SDS011;45728;48.788;2.302;2022-08-03T10:32:29;5.75;;;1.55;;
59846;SDS011;45728;48.788;2.302;2022-08-03T10:35:03;5.47;;;1.63;;
59846;SDS011;45728;48.788;2.302;2022-08-03T10:37:33;2.92;;;1.30;;
59846;SDS011;45728;48.788;2.302;2022-08-03T10:40:06;4.25;;;1.50;;
59846;SDS011;45728;48.788;2.302;2022-08-03T10:42:34;2.70;;;1.40;;
59846;SDS011;45728;48.788;2.302;2022-08-03T10:45:09;3.13;;;1.05;;
59846;SDS011;45728;48.788;2.302;2022-08-03T10:47:42;6.30;;;1.95;;
59846;SDS011;45728;48.788;2.302;2022-08-03T10:50:09;6.97;;;1.40;;
59846;SDS011;45728;48.788;2.302;2022-08-03T10:52:52;5.93;;;1.38;;
59846;SDS011;45728;48.788;2.302;2022-08-03T11:01:03;4.00;;;1.48;;
59846;SDS011;45728;48.788;2.302;2022-08-03T11:03:30;6.32;;;1.60;;
59846;SDS011;45728;48.788;2.302;2022-08-03T11:06:18;3.75;;;1.20;;
59846;SDS011;45728;48.788;2.302;2022-08-03T11:08:49;5.65;;;1.60;;
59846;SDS011;45728;48.788;2.302;2022-08-03T11:11:37;6.07;;;1.73;;
59846;SDS011;45728;48.788;2.302;2022-08-03T11:14:07;8.32;;;1.73;;
59846;SDS011;45728;48.788;2.302;2022-08-03T11:16:36;4.28;;;1.58;;
59846;SDS011;45728;48.788;2.302;2022-08-03T11:19:06;6.47;;;1.70;;
59846;SDS011;45728;48.788;2.302;2022-08-03T11:27:17;5.20;;;1.60;;
59846;SDS011;45728;48.788;2.302;2022-08-03T11:30:00;7.45;;;2.30;;
59846;SDS011;45728;48.788;2.302;2022-08-03T11:40:31;7.13;;;2.00;;
59846;SDS011;45728;48.788;2.302;2022-08-03T11:43:08;4.70;;;1.30;;
59846;SDS011;45728;48.788;2.302;2022-08-03T11:45:58;5.18;;;1.65;;
59846;SDS011;45728;48.788;2.302;2022-08-03T11:48:37;3.47;;;1.40;;
59846;SDS011;45728;48.788;2.302;2022-08-03T11:51:06;2.67;;;1.50;;
59846;SDS011;45728;48.788;2.302;2022-08-03T11:53:42;3.80;;;1.60;;
59846;SDS011;45728;48.788;2.302;2022-08-03T11:56:09;5.82;;;1.70;;
59846;SDS011;45728;48.788;2.302;2022-08-03T11:58:35;3.03;;;1.30;;
59846;SDS011;45728;48.788;2.302;2022-08-03T12:01:04;2.63;;;1.45;;
59846;SDS011;45728;48.788;2.302;2022-08-03T12:03:32;2.42;;;1.30;;
59846;SDS011;45728;48.788;2.302;2022-08-03T12:05:59;4.97;;;1.35;;
59846;SDS011;45728;48.788;2.302;2022-08-03T12:10:53;5.22;;;1.40;;
59846;SDS011;45728;48.788;2.302;2022-08-03T12:13:20;3.43;;;1.40;;
59846;SDS011;45728;48.788;2.302;2022-08-03T12:15:51;4.35;;;1.40;;
59846;SDS011;45728;48.788;2.302;2022-08-03T12:18:19;5.68;;;1.27;;
59846;SDS011;45728;48.788;2.302;2022-08-03T12:20:46;6.30;;;1.27;;
59846;SDS011;45728;48.788;2.302;2022-08-03T12:23:17;4.57;;;1.40;;
59846;SDS011;45728;48.788;2.302;2022-08-03T12:25:44;3.53;;;1.60;;
59846;SDS011;45728;48.788;2.302;2022-08-03T12:28:17;5.38;;;1.30;;
59846;SDS011;45728;48.788;2.302;2022-08-03T12:30:48;2.88;;;1.40;;
59846;SDS011;45728;48.788;2.302;2022-08-03T12:38:33;2.70;;;1.20;;
59846;SDS011;45728;48.788;2.302;2022-08-03T12:41:04;3.30;;;1.30;;
59846;SDS011;45728;48.788;2.302;2022-08-03T12:43:33;4.15;;;1.45;;
59846;SDS011;45728;48.788;2.302;2022-08-03T12:51:35;2.80;;;1.52;;
59846;SDS011;45728;48.788;2.302;2022-08-03T12:54:03;4.15;;;1.40;;
59846;SDS011;45728;48.788;2.302;2022-08-03T12:56:30;2.50;;;1.40;;
59846;SDS011;45728;48.788;2.302;2022-08-03T12:58:56;4.60;;;1.67;;
59846;SDS011;45728;48.788;2.302;2022-08-03T13:01:22;4.28;;;1.40;;
59846;SDS011;45728;48.788;2.302;2022-08-03T13:03:49;3.85;;;1.30;;
59846;SDS011;45728;48.788;2.302;2022-08-03T13:06:18;7.10;;;1.50;;
59846;SDS011;45728;48.788;2.302;2022-08-03T13:08:47;5.47;;;1.48;;
59846;SDS011;45728;48.788;2.302;2022-08-03T13:11:17;8.68;;;1.60;;
59846;SDS011;45728;48.788;2.302;2022-08-03T13:13:44;5.15;;;1.55;;
59846;SDS011;45728;48.788;2.302;2022-08-03T13:16:10;7.97;;;1.67;;
59846;SDS011;45728;48.788;2.302;2022-08-03T13:18:36;6.65;;;1.52;;
59846;SDS011;45728;48.788;2.302;2022-08-03T13:21:02;3.08;;;1.25;;
59846;SDS011;45728;48.788;2.302;2022-08-03T13:23:28;2.80;;;1.10;;
59846;SDS011;45728;48.788;2.302;2022-08-03T13:25:54;6.63;;;1.65;;
59846;SDS011;45728;48.788;2.302;2022-08-03T13:28:20;4.53;;;1.25;;
59846;SDS011;45728;48.788;2.302;2022-08-03T13:30:46;6.00;;;1.55;;
59846;SDS011;45728;48.788;2.302;2022-08-03T13:33:12;7.60;;;1.77;;
59846;SDS011;45728;48.788;2.302;2022-08-03T13:35:38;5.40;;;1.30;;
59846;SDS011;45728;48.788;2.302;2022-08-03T13:38:04;2.10;;;1.48;;
59846;SDS011;45728;48.788;2.302;2022-08-03T13:40:31;6.22;;;1.80;;
59846;SDS011;45728;48.788;2.302;2022-08-03T13:42:57;2.95;;;1.23;;
59846;SDS011;45728;48.788;2.302;2022-08-03T13:45:23;3.53;;;1.50;;
59846;SDS011;45728;48.788;2.302;2022-08-03T13:47:49;7.63;;;1.15;;
59846;SDS011;45728;48.788;2.302;2022-08-03T13:50:15;4.05;;;1.50;;
59846;SDS011;45728;48.788;2.302;2022-08-03T13:52:41;6.25;;;1.58;;
59846;SDS011;45728;48.788;2.302;2022-08-03T13:55:10;2.30;;;1.40;;
59846;SDS011;45728;48.788;2.302;2022-08-03T13:57:36;2.97;;;1.20;;
59846;SDS011;45728;48.788;2.302;2022-08-03T14:00:03;7.10;;;1.45;;
59846;SDS011;45728;48.788;2.302;2022-08-03T14:02:30;4.57;;;1.50;;
59846;SDS011;45728;48.788;2.302;2022-08-03T14:04:56;6.03;;;1.40;;
59846;SDS011;45728;48.788;2.302;2022-08-03T14:07:22;5.15;;;1.40;;
59846;SDS011;45728;48.788;2.302;2022-08-03T14:09:48;4.22;;;1.30;;
59846;SDS011;45728;48.788;2.302;2022-08-03T14:12:15;6.88;;;1.52;;
59846;SDS011;45728;48.788;2.302;2022-08-03T14:14:41;5.22;;;1.40;;
59846;SDS011;45728;48.788;2.302;2022-08-03T14:17:07;2.60;;;1.42;;
59846;SDS011;45728;48.788;2.302;2022-08-03T14:19:33;5.50;;;1.52;;
59846;SDS011;45728;48.788;2.302;2022-08-03T14:21:59;3.60;;;1.52;;
59846;SDS011;45728;48.788;2.302;2022-08-03T14:24:25;3.63;;;1.30;;
59846;SDS011;45728;48.788;2.302;2022-08-03T14:26:51;3.72;;;1.40;;
59846;SDS011;45728;48.788;2.302;2022-08-03T14:29:17;3.35;;;1.30;;
59846;SDS011;45728;48.788;2.302;2022-08-03T14:31:43;1.80;;;1.20;;
59846;SDS011;45728;48.788;2.302;2022-08-03T14:34:09;4.32;;;1.27;;
59846;SDS011;45728;48.788;2.302;2022-08-03T14:36:35;3.55;;;1.35;;
59846;SDS011;45728;48.788;2.302;2022-08-03T14:39:01;2.85;;;0.90;;
59846;SDS011;45728;48.788;2.302;2022-08-03T14:41:27;3.80;;;1.60;;
59846;SDS011;45728;48.788;2.302;2022-08-03T14:43:53;1.73;;;1.02;;
59846;SDS011;45728;48.788;2.302;2022-08-03T14:46:21;3.88;;;1.23;;
59846;SDS011;45728;48.788;2.302;2022-08-03T14:48:47;2.08;;;1.00;;
59846;SDS011;45728;48.788;2.302;2022-08-03T14:51:13;4.75;;;1.17;;
59846;SDS011;45728;48.788;2.302;2022-08-03T14:53:40;4.32;;;1.20;;
59846;SDS011;45728;48.788;2.302;2022-08-03T14:56:06;4.85;;;1.20;;
59846;SDS011;45728;48.788;2.302;2022-08-03T14:58:32;3.50;;;1.13;;
59846;SDS011;45728;48.788;2.302;2022-08-03T15:00:58;2.90;;;1.13;;
59846;SDS011;45728;48.788;2.302;2022-08-03T15:03:24;4.15;;;1.40;;
59846;SDS011;45728;48.788;2.302;2022-08-03T15:05:54;2.05;;;1.00;;
59846;SDS011;45728;48.788;2.302;2022-08-03T15:08:21;4.20;;;1.27;;
59846;SDS011;45728;48.788;2.302;2022-08-03T15:10:48;2.03;;;1.20;;
59846;SDS011;45728;48.788;2.302;2022-08-03T15:13:15;4.32;;;1.10;;
59846;SDS011;45728;48.788;2.302;2022-08-03T15:15:42;2.85;;;1.25;;
59846;SDS011;45728;48.788;2.302;2022-08-03T15:18:08;2.53;;;1.20;;
59846;SDS011;45728;48.788;2.302;2022-08-03T15:20:34;5.63;;;1.00;;
59846;SDS011;45728;48.788;2.302;2022-08-03T15:23:00;1.90;;;0.90;;
59846;SDS011;45728;48.788;2.302;2022-08-03T15:25:26;2.92;;;1.13;;
59846;SDS011;45728;48.788;2.302;2022-08-03T15:27:52;3.08;;;1.02;;
59846;SDS011;45728;48.788;2.302;2022-08-03T15:30:19;5.75;;;1.08;;
59846;SDS011;45728;48.788;2.302;2022-08-03T15:32:45;3.42;;;1.08;;
59846;SDS011;45728;48.788;2.302;2022-08-03T15:35:11;2.78;;;1.00;;
59846;SDS011;45728;48.788;2.302;2022-08-03T15:37:37;2.97;;;1.20;;
59846;SDS011;45728;48.788;2.302;2022-08-03T15:40:03;2.53;;;0.90;;
59846;SDS011;45728;48.788;2.302;2022-08-03T15:42:30;3.65;;;1.00;;
59846;SDS011;45728;48.788;2.302;2022-08-03T15:44:57;5.85;;;1.20;;